Time;durP1;ratioP1;P1;durP2;ratioP2;P2;SDS_P1;SDS_P2;PMS_P1;PMS_P2;Temp;Humidity;BMP_temperature;BMP_pressure;BME280_temperature;BME280_humidity;BME280_pressure;Samples;Min_cycle;Max_cycle;Signal;HPM_P1;HPM_P2
2023/05/07 11:12:36;;;;;;;13.43;9.48;;;13.00;99.90;;;;;;5097532;27;20057;-46
2023/05/07 11:15:08;;;;;;;12.27;9.48;;;13.10;99.90;;;;;;5134965;27;20567;-45
2023/05/07 11:17:34;;;;;;;15.80;9.25;;;13.30;99.90;;;;;;5094861;27;20553;-50
2023/05/07 11:20:04;;;;;;;9.60;7.78;;;13.40;99.90;;;;;;5126682;27;20088;-46
2023/05/07 11:22:32;;;;;;;12.32;9.02;;;13.50;99.90;;;;;;5145118;27;20042;-46
2023/05/07 11:25:03;;;;;;;11.00;8.65;;;13.70;99.90;;;;;;5118222;27;20044;-46
2023/05/07 11:27:29;;;;;;;11.40;8.90;;;13.80;99.90;;;;;;5106879;28;20066;-45
2023/05/07 11:29:55;;;;;;;10.48;8.93;;;13.80;99.90;;;;;;5083596;28;20047;-47
2023/05/07 11:32:31;;;;;;;11.68;8.27;;;13.80;99.90;;;;;;5056434;28;20120;-45
2023/05/07 11:35:00;;;;;;;9.98;7.63;;;14.10;99.90;;;;;;5002916;28;20496;-48
2023/05/07 11:39:45;;;;;;;8.07;7.22;;;14.30;99.90;;;;;;5188389;27;20133;-44
2023/05/07 11:42:49;;;;;;;10.88;8.40;;;14.30;99.90;;;;;;5182059;27;20305;-46
2023/05/07 11:45:24;;;;;;;8.87;7.93;;;14.60;99.90;;;;;;5044217;28;1229164;-47
2023/05/07 11:47:50;;;;;;;9.85;8.43;;;14.60;99.90;;;;;;5027513;28;20113;-44
2023/05/07 11:50:16;;;;;;;10.05;8.65;;;14.60;99.90;;;;;;5025362;28;20045;-46
2023/05/07 11:52:50;;;;;;;9.30;7.72;;;14.60;99.90;;;;;;5037250;28;20036;-45
2023/05/07 11:55:19;;;;;;;9.95;8.38;;;14.60;99.90;;;;;;5030600;28;20076;-44
2023/05/07 11:57:45;;;;;;;10.70;8.15;;;14.60;99.90;;;;;;5023568;28;20124;-46
2023/05/07 12:00:11;;;;;;;10.77;8.30;;;14.80;99.90;;;;;;5024207;28;20093;-44
2023/05/07 12:02:37;;;;;;;9.43;8.30;;;14.90;99.90;;;;;;5038504;28;20459;-46
2023/05/07 12:05:02;;;;;;;10.18;8.65;;;14.80;99.90;;;;;;5044897;28;20096;-44
2023/05/07 12:07:28;;;;;;;9.63;8.13;;;14.80;99.90;;;;;;5028294;28;20026;-47
2023/05/07 12:09:53;;;;;;;13.27;9.25;;;15.00;99.90;;;;;;5037315;28;20033;-47
2023/05/07 12:12:19;;;;;;;12.73;8.52;;;15.00;99.90;;;;;;5043236;28;20025;-47
2023/05/07 12:14:45;;;;;;;11.60;9.20;;;15.00;99.90;;;;;;5043650;28;20032;-46
2023/05/07 12:17:13;;;;;;;10.63;7.70;;;14.80;99.90;;;;;;5027159;28;20475;-47
2023/05/07 12:19:41;;;;;;;8.70;7.80;;;14.80;99.90;;;;;;5023653;28;20049;-46
2023/05/07 12:22:10;;;;;;;8.82;7.70;;;15.10;99.90;;;;;;5023095;28;20022;-46
2023/05/07 12:24:56;;;;;;;8.57;7.65;;;15.40;99.90;;;;;;5023343;28;20419;-46
2023/05/07 12:27:21;;;;;;;10.18;7.65;;;15.30;99.90;;;;;;5023417;28;20742;-47
2023/05/07 12:29:48;;;;;;;10.45;7.80;;;15.10;99.90;;;;;;5023369;28;20029;-44
2023/05/07 12:32:18;;;;;;;9.10;7.45;;;15.10;99.90;;;;;;5022137;28;20022;-45
2023/05/07 12:34:44;;;;;;;9.48;7.72;;;15.00;99.90;;;;;;5023751;28;20227;-44
2023/05/07 12:37:10;;;;;;;8.20;6.78;;;14.90;99.90;;;;;;5024927;28;20033;-45
2023/05/07 12:39:36;;;;;;;9.27;7.10;;;15.30;99.90;;;;;;5024916;28;20407;-47
2023/05/07 12:42:02;;;;;;;11.25;7.75;;;15.60;99.90;;;;;;5024262;28;20535;-44
2023/05/07 12:44:32;;;;;;;14.85;8.20;;;15.80;99.90;;;;;;5024541;28;20022;-45
2023/05/07 12:47:01;;;;;;;8.68;7.78;;;15.50;99.70;;;;;;5036426;28;20135;-44
2023/05/07 12:49:27;;;;;;;10.02;7.13;;;15.60;99.30;;;;;;5080419;28;20111;-44
2023/05/07 12:51:54;;;;;;;9.30;7.53;;;16.00;99.90;;;;;;5070736;28;20108;-47
2023/05/07 12:54:33;;;;;;;11.10;7.30;;;16.10;99.10;;;;;;5069685;28;20050;-44
2023/05/07 12:57:07;;;;;;;8.07;6.75;;;16.30;98.30;;;;;;5070474;28;20195;-44
2023/05/07 12:59:37;;;;;;;7.00;6.03;;;16.60;99.30;;;;;;5070189;28;20029;-45
2023/05/07 13:02:03;;;;;;;7.38;6.63;;;17.00;97.30;;;;;;5061326;28;20025;-45
2023/05/07 13:04:29;;;;;;;8.40;7.38;;;17.30;96.90;;;;;;5051170;28;20364;-44
2023/05/07 13:06:54;;;;;;;8.02;6.97;;;17.20;96.80;;;;;;5051105;28;20017;-46
2023/05/07 13:09:20;;;;;;;7.82;6.72;;;17.60;95.60;;;;;;5066266;28;20059;-44
2023/05/07 13:11:45;;;;;;;8.32;6.60;;;17.70;95.60;;;;;;5049508;28;20107;-45
2023/05/07 13:14:11;;;;;;;7.65;6.78;;;18.00;96.10;;;;;;5051157;28;20040;-45
2023/05/07 13:16:37;;;;;;;8.45;6.35;;;17.90;95.20;;;;;;5066066;28;20470;-45
2023/05/07 13:19:02;;;;;;;7.28;6.50;;;18.20;95.70;;;;;;5050529;28;20033;-45
2023/05/07 13:21:28;;;;;;;8.52;6.57;;;18.20;94.70;;;;;;5050152;28;20048;-44
2023/05/07 13:23:53;;;;;;;6.88;6.18;;;18.30;94.90;;;;;;5055655;28;20095;-46
2023/05/07 13:26:20;;;;;;;6.82;6.05;;;18.00;94.40;;;;;;5051668;28;20025;-44
2023/05/07 13:28:46;;;;;;;10.13;7.32;;;17.70;94.80;;;;;;5048707;28;20536;-40
2023/05/07 13:31:11;;;;;;;11.82;7.43;;;17.60;94.70;;;;;;5053914;28;20104;-39
2023/05/07 13:33:37;;;;;;;7.53;6.47;;;17.20;94.70;;;;;;5053821;28;20096;-40
2023/05/07 13:36:05;;;;;;;8.57;7.10;;;16.90;94.90;;;;;;5053323;28;20065;-39
2023/05/07 13:38:30;;;;;;;9.50;6.80;;;17.10;95.50;;;;;;5073976;28;20147;-39
2023/05/07 13:40:56;;;;;;;9.07;6.53;;;17.10;95.40;;;;;;5049902;28;20104;-39
2023/05/07 13:43:21;;;;;;;6.85;5.88;;;16.90;95.60;;;;;;5050272;28;20474;-39
2023/05/07 13:45:47;;;;;;;10.20;6.72;;;17.00;96.30;;;;;;5060246;28;20036;-39
2023/05/07 13:48:12;;;;;;;8.75;6.97;;;17.20;95.50;;;;;;5100970;27;20148;-39
2023/05/07 13:50:38;;;;;;;9.18;5.93;;;17.00;95.00;;;;;;5130155;27;20019;-39
2023/05/07 13:53:03;;;;;;;8.63;6.53;;;17.10;95.30;;;;;;5130796;27;20046;-39
2023/05/07 13:55:29;;;;;;;8.57;6.80;;;17.00;94.80;;;;;;5129644;27;20031;-39
2023/05/07 13:58:00;;;;;;;7.50;6.40;;;17.10;94.60;;;;;;5130653;27;20027;-40
2023/05/07 14:00:27;;;;;;;7.68;5.88;;;17.00;93.90;;;;;;5130945;27;20011;-40
2023/05/07 14:02:53;;;;;;;7.50;6.00;;;16.70;94.60;;;;;;5130129;27;20100;-40
2023/05/07 14:05:19;;;;;;;8.88;5.88;;;16.90;95.20;;;;;;5131055;27;20128;-40
2023/05/07 14:07:45;;;;;;;6.57;5.82;;;16.70;95.70;;;;;;5130494;27;20521;-40
2023/05/07 14:10:11;;;;;;;9.65;6.78;;;16.70;95.60;;;;;;5111538;27;20369;-40
2023/05/07 14:12:37;;;;;;;6.95;6.22;;;16.50;94.80;;;;;;5131101;27;20099;-41
2023/05/07 14:15:03;;;;;;;8.00;6.25;;;16.60;95.10;;;;;;5125258;27;20108;-40
2023/05/07 14:17:28;;;;;;;5.63;4.90;;;16.50;95.20;;;;;;5119957;27;20047;-40
2023/05/07 14:19:54;;;;;;;10.40;6.95;;;16.40;95.30;;;;;;5131466;27;20023;-39
2023/05/07 14:22:21;;;;;;;7.95;6.18;;;16.50;96.60;;;;;;5150293;27;20027;-39
2023/05/07 14:24:47;;;;;;;12.25;6.07;;;16.70;95.70;;;;;;5151221;27;20045;-39
2023/05/07 14:27:12;;;;;;;6.93;5.60;;;16.90;95.80;;;;;;5132257;27;20054;-39
2023/05/07 14:29:38;;;;;;;5.95;5.30;;;16.80;95.40;;;;;;5132509;27;20026;-39
2023/05/07 14:32:04;;;;;;;5.72;5.13;;;17.10;94.70;;;;;;5142805;27;20031;-39
2023/05/07 14:34:29;;;;;;;7.40;5.28;;;17.20;94.10;;;;;;5130093;27;20065;-39
2023/05/07 14:36:55;;;;;;;10.43;5.88;;;17.00;95.00;;;;;;5130283;27;20038;-39
2023/05/07 14:39:21;;;;;;;6.20;5.60;;;17.10;94.50;;;;;;5128717;27;20023;-39
2023/05/07 14:41:47;;;;;;;7.47;5.85;;;17.20;94.50;;;;;;5129552;27;20460;-40
2023/05/07 14:44:13;;;;;;;7.95;6.38;;;17.10;94.90;;;;;;5129800;27;20088;-40
2023/05/07 14:46:38;;;;;;;6.00;5.40;;;17.00;93.90;;;;;;5129188;27;20480;-39
2023/05/07 14:49:04;;;;;;;5.75;5.15;;;17.00;95.00;;;;;;5104455;28;20092;-39
2023/05/07 14:51:30;;;;;;;5.40;4.63;;;17.00;95.30;;;;;;5093394;28;20081;-39
2023/05/07 14:53:56;;;;;;;5.88;4.80;;;17.30;95.70;;;;;;5088928;28;20505;-39
2023/05/07 14:56:22;;;;;;;6.32;5.22;;;17.40;94.40;;;;;;5096951;28;20107;-40
2023/05/07 14:58:50;;;;;;;7.75;5.40;;;17.50;94.30;;;;;;5107946;28;20115;-39
2023/05/07 15:01:16;;;;;;;9.95;6.20;;;17.60;93.80;;;;;;5108719;28;20025;-39
2023/05/07 15:03:42;;;;;;;5.97;5.10;;;17.20;93.30;;;;;;5108756;28;20019;-39
2023/05/07 15:06:07;;;;;;;9.65;5.65;;;17.20;94.50;;;;;;5109790;28;20061;-40
2023/05/07 15:08:33;;;;;;;6.60;5.80;;;17.00;94.00;;;;;;5109214;28;20024;-39
2023/05/07 15:10:58;;;;;;;6.50;5.57;;;17.00;94.80;;;;;;5108566;28;20408;-40
2023/05/07 15:13:24;;;;;;;7.85;5.50;;;17.10;94.90;;;;;;5108902;28;20037;-40
2023/05/07 15:15:50;;;;;;;5.88;5.28;;;17.40;94.60;;;;;;5108441;28;20540;-39
2023/05/07 15:18:16;;;;;;;6.65;5.65;;;17.40;94.10;;;;;;5108315;28;20023;-39
2023/05/07 15:20:42;;;;;;;7.07;5.50;;;17.20;94.30;;;;;;5108173;28;20011;-39
2023/05/07 15:23:15;;;;;;;9.82;6.15;;;17.10;94.40;;;;;;5091025;28;20024;-39
2023/05/07 15:25:40;;;;;;;5.32;4.82;;;17.00;94.10;;;;;;5109265;28;20019;-39
2023/05/07 15:28:06;;;;;;;7.60;4.78;;;16.80;94.60;;;;;;5109073;28;20069;-39
2023/05/07 15:30:32;;;;;;;5.60;4.90;;;16.90;96.10;;;;;;5108451;28;20084;-39
2023/05/07 15:32:58;;;;;;;6.05;4.90;;;16.90;95.50;;;;;;5109236;28;20450;-39
2023/05/07 15:35:25;;;;;;;8.98;5.57;;;17.10;95.40;;;;;;5108377;28;20023;-39
2023/05/07 15:37:51;;;;;;;7.90;6.30;;;17.40;94.80;;;;;;5107959;28;20028;-42
2023/05/07 15:40:16;;;;;;;7.10;5.80;;;17.60;94.00;;;;;;5107857;28;20492;-43
2023/05/07 15:42:44;;;;;;;8.05;6.07;;;17.40;93.60;;;;;;5108324;28;20015;-41
2023/05/07 15:45:10;;;;;;;7.57;6.47;;;17.10;94.20;;;;;;5109165;28;20022;-40
2023/05/07 15:47:36;;;;;;;14.68;7.20;;;16.90;94.50;;;;;;5108279;28;20020;-41
2023/05/07 15:50:02;;;;;;;11.25;6.88;;;16.80;94.50;;;;;;5108379;28;20012;-39
2023/05/07 15:52:28;;;;;;;7.57;6.78;;;16.70;94.90;;;;;;5108110;28;20089;-38
2023/05/07 15:54:55;;;;;;;7.22;6.50;;;16.60;94.70;;;;;;5108679;28;20020;-40
2023/05/07 15:57:21;;;;;;;6.95;6.18;;;16.50;94.80;;;;;;5103706;28;20024;-39
2023/05/07 15:59:47;;;;;;;9.15;6.50;;;16.30;95.30;;;;;;5108002;28;20024;-40
2023/05/07 16:02:13;;;;;;;6.80;6.10;;;16.10;94.80;;;;;;5108727;28;20039;-40
2023/05/07 16:04:38;;;;;;;8.73;6.15;;;16.00;95.90;;;;;;5108573;28;20020;-39
2023/05/07 16:07:04;;;;;;;7.35;5.53;;;16.00;95.50;;;;;;5107763;28;20058;-39
2023/05/07 16:09:30;;;;;;;6.25;5.03;;;15.90;95.10;;;;;;5107183;28;20182;-39
2023/05/07 16:11:55;;;;;;;7.22;5.32;;;15.90;95.30;;;;;;5106894;28;20392;-39
2023/05/07 16:14:21;;;;;;;6.82;5.32;;;15.90;94.90;;;;;;5108056;28;20078;-39
2023/05/07 16:16:47;;;;;;;7.20;5.22;;;16.00;95.60;;;;;;5108248;28;20031;-39
2023/05/07 16:19:12;;;;;;;6.53;5.78;;;16.00;95.50;;;;;;5107815;28;20107;-39
2023/05/07 16:21:39;;;;;;;6.35;4.75;;;15.70;96.00;;;;;;5106006;28;20027;-39
2023/05/07 16:24:05;;;;;;;8.10;5.25;;;15.80;96.10;;;;;;5108421;28;20016;-43
2023/05/07 16:26:31;;;;;;;7.00;6.03;;;16.00;95.40;;;;;;5111947;28;20073;-42
2023/05/07 16:28:56;;;;;;;7.22;5.13;;;16.20;95.50;;;;;;5112597;28;20032;-41
2023/05/07 16:31:22;;;;;;;6.07;5.13;;;15.90;95.70;;;;;;5111881;28;20237;-40
2023/05/07 16:33:47;;;;;;;6.25;5.50;;;16.00;96.10;;;;;;5112441;28;20419;-40
2023/05/07 16:36:13;;;;;;;6.90;5.78;;;15.90;96.30;;;;;;5111221;28;20035;-40
2023/05/07 16:38:39;;;;;;;9.00;5.82;;;16.00;95.90;;;;;;5112343;28;20036;-41
2023/05/07 16:41:04;;;;;;;5.93;5.30;;;15.60;95.90;;;;;;5111903;28;20500;-39
2023/05/07 16:43:30;;;;;;;6.18;5.43;;;15.80;96.10;;;;;;5112199;28;20095;-39
2023/05/07 16:45:56;;;;;;;6.43;5.25;;;15.50;96.50;;;;;;5112135;28;20031;-39
2023/05/07 16:48:22;;;;;;;5.57;5.05;;;15.60;96.80;;;;;;5107089;28;20430;-40
2023/05/07 16:50:47;;;;;;;7.70;5.65;;;15.60;96.70;;;;;;5091027;28;20038;-39
2023/05/07 16:53:13;;;;;;;5.50;5.00;;;15.60;96.10;;;;;;5090299;28;20055;-40
2023/05/07 16:55:40;;;;;;;6.57;5.80;;;15.50;96.20;;;;;;5091889;28;20119;-39
2023/05/07 16:58:06;;;;;;;6.28;5.68;;;15.40;96.50;;;;;;5091592;28;20081;-39
2023/05/07 17:00:33;;;;;;;7.90;5.78;;;15.40;96.50;;;;;;5090986;28;20451;-39
2023/05/07 17:02:58;;;;;;;8.13;5.57;;;15.40;97.00;;;;;;5091483;28;20020;-39
2023/05/07 17:05:24;;;;;;;7.68;6.32;;;15.40;97.00;;;;;;5094293;28;20034;-41
2023/05/07 17:07:50;;;;;;;9.45;6.10;;;15.40;97.00;;;;;;5096534;28;20024;-40
2023/05/07 17:10:16;;;;;;;8.10;5.88;;;15.30;97.20;;;;;;5100269;28;20012;-40
2023/05/07 17:12:42;;;;;;;6.18;5.57;;;15.30;97.40;;;;;;5098123;28;20089;-40
2023/05/07 17:15:09;;;;;;;11.02;6.95;;;15.20;98.10;;;;;;5105031;28;20032;-40
2023/05/07 17:17:34;;;;;;;8.40;5.68;;;15.10;97.70;;;;;;5098886;28;20035;-40
2023/05/07 17:20:00;;;;;;;6.40;5.15;;;15.00;98.60;;;;;;5099846;28;20028;-40
2023/05/07 17:22:26;;;;;;;7.47;6.00;;;14.80;98.40;;;;;;5110649;28;20012;-40
2023/05/07 17:24:51;;;;;;;9.23;6.20;;;14.80;98.80;;;;;;5111433;28;20488;-40
2023/05/07 17:27:17;;;;;;;7.10;6.32;;;14.80;98.10;;;;;;5110916;28;20094;-40
2023/05/07 17:29:42;;;;;;;8.60;6.15;;;14.80;98.70;;;;;;5111359;28;20023;-39
2023/05/07 17:32:08;;;;;;;6.00;5.32;;;14.60;98.70;;;;;;5110103;28;20050;-40
2023/05/07 17:34:34;;;;;;;7.75;5.80;;;14.50;99.20;;;;;;5111324;28;20504;-39
2023/05/07 17:36:59;;;;;;;6.97;6.28;;;14.40;99.60;;;;;;5110807;28;20218;-40
2023/05/07 17:39:25;;;;;;;6.93;6.15;;;14.30;99.90;;;;;;5106229;28;20016;-40
2023/05/07 17:41:50;;;;;;;7.45;5.75;;;14.30;99.90;;;;;;5106672;28;20024;-40
2023/05/07 17:44:17;;;;;;;6.82;6.13;;;14.30;99.90;;;;;;5126361;27;20031;-40
2023/05/07 17:46:42;;;;;;;7.10;6.20;;;14.10;99.90;;;;;;5110637;28;20064;-40
2023/05/07 17:49:08;;;;;;;6.55;5.68;;;14.10;99.90;;;;;;5111020;28;20120;-40
2023/05/07 17:51:33;;;;;;;7.50;6.07;;;14.10;99.90;;;;;;5110639;28;20019;-39
2023/05/07 17:53:59;;;;;;;6.40;5.72;;;14.10;99.90;;;;;;5109628;28;20031;-39
2023/05/07 17:56:24;;;;;;;7.03;5.22;;;14.00;99.90;;;;;;5090534;28;20058;-41
2023/05/07 17:58:50;;;;;;;6.65;5.95;;;13.90;99.90;;;;;;5090625;28;20433;-40
2023/05/07 18:01:16;;;;;;;8.23;5.88;;;13.80;99.90;;;;;;5099187;28;20024;-41
2023/05/07 18:03:41;;;;;;;7.53;6.25;;;13.70;99.90;;;;;;5110478;28;20046;-40
2023/05/07 18:06:07;;;;;;;7.55;5.97;;;13.70;99.90;;;;;;5109695;28;20011;-39
2023/05/07 18:08:33;;;;;;;8.43;5.28;;;13.70;99.90;;;;;;5110207;28;20073;-40
2023/05/07 18:10:59;;;;;;;6.82;5.70;;;13.60;99.90;;;;;;5109419;28;20107;-40
2023/05/07 18:13:25;;;;;;;7.15;5.65;;;13.60;99.90;;;;;;5102807;28;20112;-39
2023/05/07 18:15:50;;;;;;;5.65;5.00;;;13.50;99.90;;;;;;5100156;27;20038;-39
2023/05/07 18:18:17;;;;;;;5.85;5.22;;;13.40;99.90;;;;;;5101830;28;20149;-39
2023/05/07 18:20:49;;;;;;;5.20;4.68;;;13.30;99.90;;;;;;5109887;28;20019;-40
2023/05/07 18:23:15;;;;;;;6.72;5.32;;;13.20;99.90;;;;;;5098710;28;20374;-39
2023/05/07 18:25:40;;;;;;;7.47;5.85;;;13.20;99.90;;;;;;5110544;28;20030;-39
2023/05/07 18:28:06;;;;;;;9.40;5.10;;;13.10;99.90;;;;;;5107239;28;20036;-39
2023/05/07 18:30:31;;;;;;;6.60;5.30;;;13.10;99.90;;;;;;5110002;28;20019;-40
2023/05/07 18:32:57;;;;;;;6.38;5.65;;;13.00;99.90;;;;;;5110466;28;20035;-40
2023/05/07 18:35:22;;;;;;;10.98;6.47;;;12.80;99.90;;;;;;5110160;28;20059;-40
2023/05/07 18:37:48;;;;;;;7.45;5.75;;;12.80;99.90;;;;;;5103853;28;20050;-40
2023/05/07 18:40:13;;;;;;;6.57;5.50;;;12.70;99.90;;;;;;5108106;28;20027;-39
2023/05/07 18:42:39;;;;;;;8.48;5.50;;;12.60;99.90;;;;;;5104591;28;20025;-39
2023/05/07 18:45:05;;;;;;;7.22;4.60;;;12.60;99.90;;;;;;5107469;28;20022;-39
2023/05/07 18:47:30;;;;;;;6.40;5.15;;;12.60;99.90;;;;;;5109039;27;20030;-39
2023/05/07 18:49:56;;;;;;;8.40;5.70;;;12.50;99.90;;;;;;5109891;28;20022;-39
2023/05/07 18:52:22;;;;;;;7.80;5.68;;;12.40;99.90;;;;;;5108149;28;20023;-39
2023/05/07 18:54:47;;;;;;;7.28;5.72;;;12.40;99.90;;;;;;5109138;28;20465;-39
2023/05/07 18:57:13;;;;;;;7.05;5.72;;;12.40;99.90;;;;;;5109648;28;20072;-40
2023/05/07 18:59:38;;;;;;;6.18;5.30;;;12.40;99.90;;;;;;5106620;28;20205;-39
2023/05/07 19:02:04;;;;;;;6.78;5.97;;;12.30;99.90;;;;;;5097176;28;20028;-39
2023/05/07 19:04:30;;;;;;;7.57;6.10;;;12.30;99.90;;;;;;5097216;28;20020;-39
2023/05/07 19:06:56;;;;;;;6.22;5.63;;;12.20;99.90;;;;;;5101840;28;20031;-39
2023/05/07 19:09:21;;;;;;;6.95;6.15;;;12.10;99.90;;;;;;5097604;28;20023;-39
2023/05/07 19:11:47;;;;;;;9.05;7.25;;;12.10;99.90;;;;;;5098046;28;20110;-40
2023/05/07 19:14:12;;;;;;;7.70;6.65;;;12.10;99.90;;;;;;5109157;28;20023;-40
2023/05/07 19:16:38;;;;;;;7.95;6.25;;;12.00;99.90;;;;;;5108534;28;20027;-39
2023/05/07 19:19:04;;;;;;;6.60;6.00;;;11.90;99.90;;;;;;5107559;28;20019;-39
2023/05/07 19:21:30;;;;;;;7.30;6.32;;;11.90;99.90;;;;;;5108740;28;20349;-39
2023/05/07 19:23:56;;;;;;;7.80;6.68;;;11.80;99.90;;;;;;5109646;28;20020;-39
2023/05/07 19:26:22;;;;;;;7.32;6.60;;;11.80;99.90;;;;;;5109064;28;20016;-39
2023/05/07 19:28:48;;;;;;;7.78;6.78;;;11.80;99.90;;;;;;5109258;28;20023;-39
2023/05/07 19:31:21;;;;;;;6.75;5.70;;;11.70;99.90;;;;;;5108923;28;20116;-39
2023/05/07 19:33:47;;;;;;;7.88;6.18;;;11.70;99.90;;;;;;5105463;28;20473;-40
2023/05/07 19:36:13;;;;;;;7.60;6.40;;;11.60;99.90;;;;;;5091800;28;20107;-39
2023/05/07 19:38:39;;;;;;;9.60;6.88;;;11.60;99.90;;;;;;5087362;28;20453;-40
2023/05/07 19:41:05;;;;;;;9.35;6.40;;;11.50;99.90;;;;;;5087085;28;20034;-39
2023/05/07 19:43:34;;;;;;;8.20;6.55;;;11.50;99.90;;;;;;5088681;28;20497;-39
2023/05/07 19:46:01;;;;;;;8.03;6.27;;;11.50;99.90;;;;;;5088834;28;20477;-39
2023/05/07 19:48:26;;;;;;;7.22;6.35;;;11.50;99.90;;;;;;5088243;28;20050;-39
2023/05/07 19:50:52;;;;;;;10.27;6.22;;;11.40;99.90;;;;;;5090931;28;20090;-39
2023/05/07 19:53:17;;;;;;;7.97;6.30;;;11.40;99.90;;;;;;5107308;28;20028;-39
2023/05/07 19:55:43;;;;;;;7.55;6.10;;;11.30;99.90;;;;;;5109032;28;20030;-39
2023/05/07 19:58:09;;;;;;;7.75;6.30;;;11.30;99.90;;;;;;5108908;28;20420;-39
2023/05/07 20:00:34;;;;;;;8.45;5.88;;;11.20;99.90;;;;;;5111011;28;20455;-39
2023/05/07 20:03:00;;;;;;;11.65;7.15;;;11.10;99.90;;;;;;5113503;28;20487;-39
2023/05/07 20:05:26;;;;;;;6.55;5.72;;;11.10;99.90;;;;;;5106111;28;20024;-40
2023/05/07 20:07:54;;;;;;;10.77;6.68;;;11.10;99.90;;;;;;5101526;28;20169;-40
2023/05/07 20:10:20;;;;;;;9.05;6.00;;;11.00;99.90;;;;;;5101163;28;20016;-41
2023/05/07 20:12:45;;;;;;;7.78;6.30;;;11.00;99.90;;;;;;5103669;28;20397;-41
2023/05/07 20:15:11;;;;;;;9.52;6.40;;;11.00;99.90;;;;;;5101903;28;20016;-41
2023/05/07 20:17:36;;;;;;;8.52;6.63;;;10.90;99.90;;;;;;5102436;28;20028;-40
2023/05/07 20:20:02;;;;;;;7.50;6.40;;;10.90;99.90;;;;;;5097522;28;20497;-40
2023/05/07 20:22:31;;;;;;;9.15;6.93;;;10.80;99.90;;;;;;5100020;28;20235;-39
2023/05/07 20:24:57;;;;;;;9.02;7.70;;;10.80;99.90;;;;;;5102219;28;20028;-40
2023/05/07 20:27:24;;;;;;;9.52;7.20;;;10.70;99.90;;;;;;5100607;28;20030;-41
2023/05/07 20:29:51;;;;;;;11.68;7.78;;;10.70;99.90;;;;;;5097976;28;20020;-41
2023/05/07 20:32:17;;;;;;;11.00;8.07;;;10.60;99.90;;;;;;5101619;28;20019;-40
2023/05/07 20:34:45;;;;;;;11.02;7.50;;;10.60;99.90;;;;;;5096057;28;20396;-40
2023/05/07 20:37:13;;;;;;;9.85;7.72;;;10.50;99.90;;;;;;5099012;28;20027;-40
2023/05/07 20:39:40;;;;;;;9.15;7.88;;;10.50;99.90;;;;;;5098158;28;20059;-40
2023/05/07 20:42:05;;;;;;;11.50;7.88;;;10.50;99.90;;;;;;5099566;28;20695;-41
2023/05/07 20:44:32;;;;;;;11.98;9.13;;;10.50;99.90;;;;;;5102311;28;20020;-41
2023/05/07 20:46:58;;;;;;;9.75;7.75;;;10.40;99.90;;;;;;5101522;28;20089;-41
2023/05/07 20:49:24;;;;;;;10.55;7.60;;;10.40;99.90;;;;;;5101708;28;20036;-40
2023/05/07 20:51:50;;;;;;;10.57;8.57;;;10.30;99.90;;;;;;5101911;28;20023;-41
2023/05/07 20:54:16;;;;;;;10.25;8.30;;;10.30;99.90;;;;;;5102544;28;20015;-41
2023/05/07 20:56:41;;;;;;;10.93;8.70;;;10.20;99.90;;;;;;5107039;28;20515;-41
2023/05/07 20:59:07;;;;;;;11.43;8.80;;;10.20;99.90;;;;;;5101293;28;20024;-41
2023/05/07 21:01:33;;;;;;;10.27;8.38;;;10.20;99.90;;;;;;5098424;28;20076;-40
2023/05/07 21:03:58;;;;;;;12.45;8.55;;;10.10;99.90;;;;;;5099074;28;20015;-41
2023/05/07 21:06:24;;;;;;;11.63;8.85;;;10.10;99.90;;;;;;5107627;28;20024;-41
2023/05/07 21:08:50;;;;;;;12.85;8.48;;;10.00;99.90;;;;;;5096785;28;20020;-41
2023/05/07 21:11:16;;;;;;;10.32;8.40;;;10.10;99.90;;;;;;5097397;28;20050;-40
2023/05/07 21:13:42;;;;;;;11.75;8.30;;;10.00;99.90;;;;;;5099088;28;20047;-40
2023/05/07 21:16:08;;;;;;;12.93;8.35;;;10.00;99.90;;;;;;5098166;28;20489;-40
2023/05/07 21:18:34;;;;;;;10.15;8.00;;;10.00;99.90;;;;;;5097901;28;20015;-41
2023/05/07 21:21:00;;;;;;;11.40;7.57;;;9.90;99.90;;;;;;5097978;28;20027;-41
2023/05/07 21:23:25;;;;;;;10.80;7.55;;;9.90;99.90;;;;;;5102799;28;20024;-41
2023/05/07 21:25:51;;;;;;;8.32;6.97;;;9.90;99.90;;;;;;5100294;28;20032;-41
2023/05/07 21:28:17;;;;;;;8.23;7.13;;;9.80;99.90;;;;;;5100592;28;20380;-40
2023/05/07 21:30:42;;;;;;;9.77;7.95;;;9.80;99.90;;;;;;5106495;28;20110;-41
2023/05/07 21:33:08;;;;;;;8.13;7.03;;;9.80;99.90;;;;;;5101704;28;20045;-40
2023/05/07 21:35:34;;;;;;;9.35;7.75;;;9.80;99.90;;;;;;5100147;28;20447;-41
2023/05/07 21:38:01;;;;;;;20.00;7.47;;;9.70;99.90;;;;;;5107021;28;20439;-41
2023/05/07 21:40:27;;;;;;;8.07;7.07;;;9.70;99.90;;;;;;5100965;28;20504;-40
2023/05/07 21:42:52;;;;;;;9.38;7.20;;;9.60;99.90;;;;;;5099972;28;20027;-41
2023/05/07 21:45:18;;;;;;;7.90;6.78;;;9.70;99.90;;;;;;5100596;28;20026;-40
2023/05/07 21:47:44;;;;;;;8.65;7.75;;;9.70;99.90;;;;;;5101244;28;20100;-41
2023/05/07 21:50:11;;;;;;;10.55;7.47;;;9.70;99.90;;;;;;5108272;28;20461;-40
2023/05/07 21:52:36;;;;;;;10.32;7.25;;;9.60;99.90;;;;;;5100137;28;20019;-41
2023/05/07 21:55:03;;;;;;;9.48;7.50;;;9.60;99.90;;;;;;5099701;28;20354;-41
2023/05/07 21:57:28;;;;;;;10.23;8.20;;;9.50;99.90;;;;;;5101092;28;20220;-41
2023/05/07 21:59:54;;;;;;;7.47;6.78;;;9.50;99.90;;;;;;5097768;28;20024;-40
2023/05/07 22:02:19;;;;;;;8.80;7.15;;;9.50;99.90;;;;;;5097984;28;20060;-41
2023/05/07 22:04:45;;;;;;;10.20;7.20;;;9.50;99.90;;;;;;5100952;28;20499;-40
2023/05/07 22:07:10;;;;;;;8.35;7.43;;;9.40;99.90;;;;;;5098879;28;20363;-40
2023/05/07 22:09:36;;;;;;;9.57;6.97;;;9.40;99.90;;;;;;5099971;28;20062;-40
2023/05/07 22:12:02;;;;;;;7.30;6.53;;;9.40;99.90;;;;;;5100240;28;20062;-40
2023/05/07 22:14:27;;;;;;;8.73;7.22;;;9.40;99.90;;;;;;5099014;28;20454;-40
2023/05/07 22:16:53;;;;;;;9.13;8.15;;;9.40;99.90;;;;;;5100573;28;20384;-39
2023/05/07 22:19:18;;;;;;;7.68;6.70;;;9.30;99.90;;;;;;5099856;28;20031;-39
2023/05/07 22:21:44;;;;;;;7.55;6.75;;;9.40;99.90;;;;;;5096457;28;20020;-39
2023/05/07 22:24:10;;;;;;;8.40;7.00;;;9.40;99.90;;;;;;5100368;28;20030;-39
2023/05/07 22:26:35;;;;;;;11.73;7.45;;;9.30;99.90;;;;;;5099729;28;20016;-39
2023/05/07 22:29:01;;;;;;;10.02;7.13;;;9.30;99.90;;;;;;5099338;28;20219;-39
2023/05/07 22:31:27;;;;;;;8.15;7.22;;;9.30;99.90;;;;;;5098752;28;20399;-39
2023/05/07 22:33:52;;;;;;;9.15;7.68;;;9.30;99.90;;;;;;5098813;28;20032;-39
2023/05/07 22:36:18;;;;;;;8.73;7.43;;;9.20;99.90;;;;;;5099145;28;20012;-39
2023/05/07 22:38:43;;;;;;;8.40;7.50;;;9.20;99.90;;;;;;5100236;28;20032;-39
2023/05/07 22:41:09;;;;;;;7.63;6.75;;;9.20;99.90;;;;;;5097998;28;20028;-39
2023/05/07 22:43:35;;;;;;;9.68;7.68;;;9.20;99.90;;;;;;5115666;27;20038;-39
2023/05/07 22:46:01;;;;;;;8.95;7.50;;;9.10;99.90;;;;;;5099867;28;20027;-39
2023/05/07 22:48:27;;;;;;;9.52;8.40;;;9.20;99.90;;;;;;5098371;28;20032;-39
2023/05/07 22:50:53;;;;;;;10.07;8.45;;;9.10;99.90;;;;;;5099882;28;20484;-39
2023/05/07 22:53:19;;;;;;;11.00;8.63;;;9.10;99.90;;;;;;5099576;28;20035;-40
2023/05/07 22:55:45;;;;;;;10.23;8.93;;;9.10;99.90;;;;;;5097960;28;20972;-41
2023/05/07 22:58:10;;;;;;;10.20;8.95;;;9.10;99.90;;;;;;5100098;28;20084;-40
2023/05/07 23:00:36;;;;;;;11.98;9.38;;;9.00;99.90;;;;;;5098457;28;20076;-40
2023/05/07 23:03:02;;;;;;;11.75;9.45;;;9.00;99.90;;;;;;5098303;28;20102;-41
2023/05/07 23:05:27;;;;;;;10.18;8.90;;;9.00;99.90;;;;;;5099720;28;20307;-40
2023/05/07 23:07:53;;;;;;;9.90;8.77;;;8.90;99.90;;;;;;5098115;28;20474;-40
2023/05/07 23:10:18;;;;;;;10.50;9.43;;;8.90;99.90;;;;;;5096920;28;20080;-40
2023/05/07 23:12:47;;;;;;;13.15;9.50;;;8.90;99.90;;;;;;5099745;28;20039;-41
2023/05/07 23:15:18;;;;;;;10.38;9.27;;;8.80;99.90;;;;;;5098167;28;20027;-40
2023/05/07 23:17:45;;;;;;;11.10;9.85;;;8.90;99.90;;;;;;5098239;28;20034;-40
2023/05/07 23:20:11;;;;;;;10.57;9.18;;;8.80;99.90;;;;;;5098525;28;20116;-41
2023/05/07 23:22:37;;;;;;;10.70;9.60;;;8.80;99.90;;;;;;5098647;28;20032;-40
2023/05/07 23:25:03;;;;;;;11.23;9.20;;;8.70;99.90;;;;;;5112955;27;20016;-40
2023/05/07 23:27:29;;;;;;;10.82;9.73;;;8.70;99.90;;;;;;5098705;28;20111;-39
2023/05/07 23:29:55;;;;;;;11.85;9.00;;;8.70;99.90;;;;;;5098318;28;20050;-41
2023/05/07 23:32:21;;;;;;;10.38;8.77;;;8.70;99.90;;;;;;5097739;28;20047;-39
2023/05/07 23:34:50;;;;;;;11.85;9.35;;;8.70;99.90;;;;;;5099372;28;20026;-40
2023/05/07 23:37:15;;;;;;;11.75;9.82;;;8.60;99.90;;;;;;5098163;28;20401;-39
2023/05/07 23:39:41;;;;;;;8.60;7.70;;;8.60;99.90;;;;;;5098058;28;20034;-40
2023/05/07 23:42:06;;;;;;;10.75;9.18;;;8.60;99.90;;;;;;5106369;28;20037;-39
2023/05/07 23:44:32;;;;;;;11.15;8.48;;;8.50;99.90;;;;;;5097483;28;20048;-40
2023/05/07 23:46:58;;;;;;;10.73;8.68;;;8.50;99.90;;;;;;5096981;28;20024;-39
2023/05/07 23:49:23;;;;;;;9.40;8.32;;;8.50;99.90;;;;;;5099119;28;20099;-39
2023/05/07 23:51:49;;;;;;;9.52;8.23;;;8.50;99.90;;;;;;5097104;28;20442;-40
2023/05/07 23:54:14;;;;;;;9.18;8.15;;;8.40;99.90;;;;;;5099203;28;20031;-39